createdAt,value
2019-05-11T00:00:28.052Z,9.67
2019-05-11T00:03:20.506Z,8.97
2019-05-11T00:06:11.907Z,8.87
2019-05-11T00:09:05.993Z,10.00
2019-05-11T00:12:00.592Z,9.30
2019-05-11T00:14:49.078Z,8.63
2019-05-11T00:17:42.961Z,9.47
2019-05-11T00:20:32.210Z,9.37
2019-05-11T00:23:26.821Z,9.20
2019-05-11T00:26:15.882Z,9.17
2019-05-11T00:29:09.514Z,8.50
2019-05-11T00:32:00.927Z,9.00
2019-05-11T00:34:49.274Z,9.10
2019-05-11T00:37:39.619Z,9.27
2019-05-11T00:40:32.812Z,9.20
2019-05-11T00:43:24.171Z,8.37
2019-05-11T00:46:20.129Z,8.07
2019-05-11T00:49:18.564Z,8.30
2019-05-11T00:52:15.246Z,8.97
2019-05-11T00:55:03.748Z,8.07
2019-05-11T00:58:01.642Z,9.27
2019-05-11T01:01:06.689Z,8.73
2019-05-11T01:03:55.122Z,9.10
2019-05-11T01:06:50.181Z,8.47
2019-05-11T01:09:38.485Z,7.73
2019-05-11T01:12:26.420Z,7.70
2019-05-11T01:15:21.202Z,8.43
2019-05-11T01:18:10.442Z,7.07
2019-05-11T01:21:06.319Z,6.30
2019-05-11T01:23:56.594Z,6.47
2019-05-11T01:26:50.012Z,7.07
2019-05-11T01:29:40.251Z,6.37
2019-05-11T01:32:32.777Z,7.33
2019-05-11T01:35:36.019Z,6.90
2019-05-11T01:38:26.572Z,7.80
2019-05-11T01:41:16.846Z,8.50
2019-05-11T01:44:10.889Z,8.03
2019-05-11T01:47:09.868Z,7.63
2019-05-11T01:50:00.733Z,8.60
2019-05-11T01:53:00.493Z,7.20
2019-05-11T01:56:02.211Z,5.60
2019-05-11T01:58:58.542Z,4.87
2019-05-11T02:01:52.767Z,7.00
2019-05-11T02:04:44.132Z,7.43
2019-05-11T02:07:38.804Z,6.87
2019-05-11T02:10:33.912Z,7.00
2019-05-11T02:13:32.067Z,7.17
2019-05-11T02:16:28.416Z,7.00
2019-05-11T02:19:27.821Z,6.63
2019-05-11T02:22:31.206Z,6.57
2019-05-11T02:25:22.735Z,6.63
2019-05-11T02:28:13.250Z,7.07
2019-05-11T02:31:30.016Z,5.70
2019-05-11T02:34:22.652Z,5.60
2019-05-11T02:37:14.918Z,5.50
2019-05-11T02:40:02.515Z,4.93
2019-05-11T02:42:56.717Z,5.90
2019-05-11T02:45:51.615Z,6.93
2019-05-11T02:48:54.083Z,7.50
2019-05-11T02:51:55.758Z,7.57
2019-05-11T02:54:56.153Z,7.20
2019-05-11T02:57:48.399Z,6.20
2019-05-11T03:00:40.419Z,6.00
2019-05-11T03:03:37.860Z,6.87
2019-05-11T03:06:25.905Z,7.20
2019-05-11T03:09:15.957Z,8.83
2019-05-11T03:12:04.004Z,8.13
2019-05-11T03:14:57.777Z,7.43
2019-05-11T03:17:47.476Z,7.10
2019-05-11T03:20:35.732Z,7.40
2019-05-11T03:23:38.590Z,7.20
2019-05-11T03:26:27.580Z,7.77
2019-05-11T03:29:18.930Z,7.73
2019-05-11T03:32:14.295Z,7.10
2019-05-11T03:35:02.202Z,6.47
2019-05-11T03:37:55.021Z,5.47
2019-05-11T03:40:43.457Z,6.17
2019-05-11T03:43:40.876Z,5.27
2019-05-11T03:46:37.671Z,5.10
2019-05-11T03:49:25.883Z,5.47
2019-05-11T03:52:18.886Z,5.57
2019-05-11T03:55:15.065Z,4.77
2019-05-11T03:58:03.899Z,6.30
2019-05-11T04:01:09.677Z,6.80
2019-05-11T04:03:58.299Z,6.87
2019-05-11T04:06:53.428Z,6.43
2019-05-11T04:09:44.249Z,6.60
2019-05-11T04:12:35.149Z,6.40
2019-05-11T04:15:23.378Z,7.07
2019-05-11T04:18:11.717Z,6.23
2019-05-11T04:21:05.883Z,5.73
2019-05-11T04:23:55.724Z,6.10
2019-05-11T04:26:44.351Z,6.03
2019-05-11T04:29:33.173Z,6.13
2019-05-11T04:32:21.978Z,5.90
2019-05-11T04:35:14.432Z,6.33
2019-05-11T04:38:09.252Z,6.23
2019-05-11T04:41:06.927Z,7.53
2019-05-11T04:43:57.034Z,8.80
2019-05-11T04:46:45.124Z,8.60
2019-05-11T04:49:33.965Z,9.10
2019-05-11T04:52:25.487Z,8.63
2019-05-11T04:55:22.974Z,9.20
2019-05-11T04:58:19.800Z,7.40
2019-05-11T05:01:12.562Z,7.67
2019-05-11T05:04:13.650Z,8.73
2019-05-11T05:06:59.734Z,8.53
2019-05-11T05:10:01.909Z,8.57
2019-05-11T05:13:09.644Z,7.93
2019-05-11T05:15:50.361Z,8.00
2019-05-11T05:18:50.659Z,8.10
2019-05-11T05:22:06.729Z,7.93
2019-05-11T05:24:56.552Z,7.80
2019-05-11T05:27:52.968Z,7.00
2019-05-11T05:30:54.678Z,6.50
2019-05-11T05:33:45.655Z,6.70
2019-05-11T05:36:38.121Z,6.03
2019-05-11T05:39:30.656Z,5.20
2019-05-11T05:42:21.580Z,5.40
2019-05-11T05:45:11.424Z,4.53
2019-05-11T05:48:03.715Z,4.20
2019-05-11T05:51:20.034Z,3.40
2019-05-11T05:54:16.797Z,3.73
2019-05-11T05:57:05.997Z,3.40
2019-05-11T06:00:00.141Z,3.13
2019-05-11T06:02:50.415Z,3.23
2019-05-11T06:05:40.576Z,3.90
2019-05-11T06:08:31.317Z,3.70
2019-05-11T06:11:19.376Z,3.70
2019-05-11T06:14:16.942Z,4.00
2019-05-11T06:17:05.418Z,4.20
2019-05-11T06:19:57.311Z,4.33
2019-05-11T06:22:45.847Z,4.40
2019-05-11T06:25:33.879Z,3.80
2019-05-11T06:28:22.642Z,3.50
2019-05-11T06:31:19.559Z,3.70
2019-05-11T06:34:08.664Z,3.50
2019-05-11T06:37:00.513Z,3.67
2019-05-11T06:39:53.932Z,3.80
2019-05-11T06:42:47.250Z,3.80
2019-05-11T06:45:35.520Z,3.87
2019-05-11T06:48:23.621Z,3.50
2019-05-11T06:51:13.959Z,3.50
2019-05-11T06:54:02.317Z,2.90
2019-05-11T06:56:51.381Z,3.00
2019-05-11T06:59:39.061Z,2.80
2019-05-11T07:02:27.988Z,3.57
2019-05-11T07:05:22.716Z,3.77
2019-05-11T07:08:15.678Z,2.83
2019-05-11T07:11:14.388Z,2.47
2019-05-11T07:14:19.278Z,3.03
2019-05-11T07:16:53.748Z,2.03
2019-05-11T07:19:41.457Z,2.10
2019-05-11T07:22:29.809Z,2.40
2019-05-11T07:25:18.051Z,2.03
2019-05-11T07:28:06.578Z,1.90
2019-05-11T07:31:23.588Z,1.90
2019-05-11T07:34:11.355Z,2.07
2019-05-11T07:37:00.528Z,1.83
2019-05-11T07:39:48.914Z,1.90
2019-05-11T07:42:37.917Z,1.93
2019-05-11T07:45:28.340Z,2.43
2019-05-11T07:48:15.832Z,2.30
2019-05-11T07:51:09.976Z,1.90
2019-05-11T07:53:58.120Z,2.07
2019-05-11T07:56:48.017Z,1.70
2019-05-11T07:59:38.169Z,1.87
2019-05-11T08:02:28.490Z,1.87
2019-05-11T08:05:24.363Z,2.20
2019-05-11T08:08:12.340Z,1.60
2019-05-11T08:11:08.252Z,1.70
2019-05-11T08:13:58.446Z,1.93
2019-05-11T08:16:53.353Z,1.80
2019-05-11T08:20:34.596Z,1.80
2019-05-11T08:24:04.009Z,1.70
2019-05-11T08:26:58.240Z,1.40
2019-05-11T08:29:48.577Z,1.40
2019-05-11T08:33:13.915Z,1.70
2019-05-11T08:40:07.948Z,1.47
2019-05-11T08:43:00.485Z,1.40
2019-05-11T08:45:48.731Z,1.43
2019-05-11T08:48:38.740Z,1.67
2019-05-11T08:51:29.593Z,1.20
2019-05-11T08:54:18.281Z,1.60
2019-05-11T08:57:11.221Z,1.30
2019-05-11T08:59:59.121Z,1.47
2019-05-11T09:02:50.542Z,1.50
2019-05-11T09:05:38.445Z,1.30
2019-05-11T09:08:28.234Z,1.40
2019-05-11T09:11:15.842Z,1.50
2019-05-11T09:14:04.078Z,1.20
2019-05-11T09:16:52.215Z,1.30
2019-05-11T09:19:40.356Z,1.30
2019-05-11T09:22:28.629Z,1.40
2019-05-11T09:25:18.311Z,1.70
2019-05-11T09:28:38.434Z,1.53
2019-05-11T09:39:48.157Z,1.40
2019-05-11T09:42:32.167Z,1.50
2019-05-11T09:49:43.935Z,1.20
2019-05-11T09:53:08.630Z,1.60
2019-05-11T09:56:37.986Z,1.30
2019-05-11T10:00:11.248Z,1.30
2019-05-11T10:06:38.823Z,1.30
2019-05-11T10:10:09.115Z,1.20
2019-05-11T10:13:42.449Z,1.20
2019-05-11T10:24:12.440Z,1.20
2019-05-11T10:30:48.685Z,1.10
2019-05-11T10:34:08.668Z,0.90
2019-05-11T10:37:44.128Z,1.10
2019-05-11T10:40:52.148Z,1.00
2019-05-11T10:43:45.842Z,1.33
2019-05-11T10:46:43.767Z,1.10
2019-05-11T10:49:45.885Z,1.00
2019-05-11T10:52:48.213Z,1.30
2019-05-11T10:55:39.768Z,1.00
2019-05-11T10:58:32.941Z,1.00
2019-05-11T11:01:22.850Z,0.97
2019-05-11T11:04:10.698Z,0.97
2019-05-11T11:06:59.135Z,0.90
2019-05-11T11:09:49.007Z,1.03
2019-05-11T11:12:38.458Z,0.90
2019-05-11T11:15:28.724Z,1.67
2019-05-11T11:18:16.084Z,2.60
2019-05-11T11:21:03.844Z,0.90
2019-05-11T11:23:51.804Z,1.00
2019-05-11T11:26:39.611Z,0.80
2019-05-11T11:29:28.832Z,0.73
2019-05-11T11:32:18.382Z,0.87
2019-05-11T11:35:08.459Z,1.17
2019-05-11T11:37:55.749Z,0.80
2019-05-11T11:40:44.313Z,1.07
2019-05-11T11:43:32.260Z,1.10
2019-05-11T11:46:20.551Z,0.80
2019-05-11T11:49:08.679Z,0.80
2019-05-11T11:51:57.806Z,0.90
2019-05-11T11:54:47.851Z,1.10
2019-05-11T11:57:34.997Z,1.30
2019-05-11T12:00:23.173Z,0.80
2019-05-11T12:03:11.364Z,0.90
2019-05-11T12:06:01.296Z,0.90
2019-05-11T12:08:49.855Z,0.93
2019-05-11T12:11:38.167Z,1.00
2019-05-11T12:14:27.990Z,0.90
2019-05-11T12:17:15.032Z,1.23
2019-05-11T12:20:02.951Z,1.10
2019-05-11T12:22:50.971Z,0.80
2019-05-11T12:25:40.664Z,1.00
2019-05-11T12:28:28.699Z,0.70
2019-05-11T12:31:18.444Z,0.80
2019-05-11T12:34:08.566Z,0.87
2019-05-11T12:36:57.911Z,1.00
2019-05-11T12:39:47.733Z,1.00
2019-05-11T12:42:34.742Z,1.00
2019-05-11T12:45:24.705Z,1.07
2019-05-11T12:51:53.440Z,1.10
2019-05-11T12:54:41.012Z,0.87
2019-05-11T12:57:30.800Z,1.07
2019-05-11T13:00:19.044Z,1.03
2019-05-11T13:03:08.077Z,0.90
2019-05-11T13:05:58.397Z,1.00
2019-05-11T13:08:48.034Z,1.10
2019-05-11T13:11:38.112Z,1.07
2019-05-11T13:14:27.722Z,1.00
2019-05-11T13:17:15.254Z,0.80
2019-05-11T13:20:02.735Z,0.80
2019-05-11T13:22:51.045Z,1.00
2019-05-11T13:25:39.495Z,0.90
2019-05-11T13:28:28.422Z,0.93
2019-05-11T13:31:18.399Z,1.00
2019-05-11T13:34:08.154Z,1.23
2019-05-11T13:36:57.734Z,1.47
2019-05-11T13:39:48.900Z,1.77
2019-05-11T13:42:38.591Z,1.23
2019-05-11T13:45:28.070Z,1.03
2019-05-11T13:48:17.523Z,1.80
2019-05-11T13:51:05.285Z,3.30
2019-05-11T13:53:53.155Z,1.13
2019-05-11T13:56:42.265Z,1.00
2019-05-11T13:59:30.454Z,0.93
2019-05-11T14:02:18.261Z,1.00
2019-05-11T14:05:09.743Z,1.43
2019-05-11T14:07:58.668Z,1.23
2019-05-11T14:10:48.637Z,1.40
2019-05-11T14:13:38.484Z,1.20
2019-05-11T14:16:27.591Z,1.43
2019-05-11T14:19:17.834Z,1.40
2019-05-11T14:22:08.640Z,1.40
2019-05-11T14:24:58.588Z,1.40
2019-05-11T14:27:47.833Z,3.43
2019-05-11T14:30:35.725Z,2.93
2019-05-11T14:33:24.330Z,1.73
2019-05-11T14:36:12.824Z,1.80
2019-05-11T14:39:08.398Z,1.60
2019-05-11T14:41:59.492Z,1.97
2019-05-11T14:44:50.042Z,1.27
2019-05-11T14:47:38.692Z,1.17
2019-05-11T14:50:28.154Z,0.80
2019-05-11T14:53:17.851Z,1.23
2019-05-11T14:56:08.075Z,1.30
2019-05-11T14:58:55.096Z,1.17
2019-05-11T15:01:43.020Z,1.30
2019-05-11T15:04:31.685Z,2.67
2019-05-11T15:07:19.672Z,1.47
2019-05-11T15:10:09.129Z,1.10
2019-05-11T15:12:59.126Z,12.47
2019-05-11T15:15:48.773Z,1.70
2019-05-11T15:18:41.437Z,0.90
2019-05-11T15:21:30.994Z,1.00
2019-05-11T15:24:21.990Z,1.10
2019-05-11T15:27:10.341Z,1.37
2019-05-11T15:29:58.855Z,1.23
2019-05-11T15:32:48.179Z,1.23
2019-05-11T15:35:37.778Z,1.20
2019-05-11T15:38:25.555Z,1.50
2019-05-11T15:41:17.659Z,1.20
2019-05-11T15:44:05.783Z,1.17
2019-05-11T15:46:54.204Z,1.10
2019-05-11T15:49:42.158Z,1.30
2019-05-11T15:52:30.214Z,1.10
2019-05-11T15:55:18.924Z,1.00
2019-05-11T15:58:07.919Z,1.10
2019-05-11T16:00:58.258Z,1.13
2019-05-11T16:03:50.058Z,1.23
2019-05-11T16:06:41.903Z,1.20
2019-05-11T16:09:30.582Z,1.00
2019-05-11T16:12:21.084Z,1.20
2019-05-11T16:15:11.763Z,1.30
2019-05-11T16:18:10.861Z,1.10
2019-05-11T16:21:08.648Z,1.13
2019-05-11T16:24:08.330Z,1.17
2019-05-11T16:27:01.835Z,1.13
2019-05-11T16:29:51.288Z,1.13
2019-05-11T16:32:40.147Z,1.00
2019-05-11T16:35:30.143Z,1.30
2019-05-11T16:38:28.870Z,1.27
2019-05-11T16:41:21.148Z,1.03
2019-05-11T16:44:13.169Z,1.23
2019-05-11T16:47:01.654Z,1.20
2019-05-11T16:49:52.050Z,1.30
2019-05-11T16:52:43.990Z,1.47
2019-05-11T16:55:34.555Z,1.40
2019-05-11T16:58:22.659Z,1.17
2019-05-11T17:01:10.569Z,1.20
2019-05-11T17:03:58.210Z,1.10
2019-05-11T17:06:45.770Z,1.27
2019-05-11T17:09:33.630Z,1.23
2019-05-11T17:12:21.146Z,1.20
2019-05-11T17:15:09.899Z,1.23
2019-05-11T17:17:58.751Z,1.23
2019-05-11T17:20:46.692Z,1.10
2019-05-11T17:23:34.527Z,1.20
2019-05-11T17:26:22.089Z,1.47
2019-05-11T17:29:10.184Z,1.30
2019-05-11T17:31:58.107Z,1.33
2019-05-11T17:34:47.780Z,1.40
2019-05-11T17:37:37.853Z,1.30
2019-05-11T17:40:28.455Z,1.40
2019-05-11T17:43:21.224Z,1.57
2019-05-11T17:46:09.090Z,2.00
2019-05-11T17:48:56.520Z,2.20
2019-05-11T17:51:44.262Z,2.50
2019-05-11T17:54:33.010Z,3.43
2019-05-11T17:57:20.997Z,4.50
2019-05-11T18:00:09.348Z,5.87
2019-05-11T18:02:58.322Z,5.77
2019-05-11T18:05:48.537Z,7.23
2019-05-11T18:08:36.386Z,6.50
2019-05-11T18:11:24.456Z,5.77
2019-05-11T18:14:12.200Z,1.70
2019-05-11T18:17:00.561Z,1.40
2019-05-11T18:19:48.498Z,2.00
2019-05-11T18:22:39.048Z,1.90
2019-05-11T18:25:28.785Z,2.20
2019-05-11T18:28:18.157Z,2.10
2019-05-11T18:31:06.123Z,2.50
2019-05-11T18:33:53.688Z,2.20
2019-05-11T18:36:41.169Z,3.57
2019-05-11T18:39:28.769Z,3.63
2019-05-11T18:42:18.550Z,3.97
2019-05-11T18:45:08.376Z,3.43
2019-05-11T18:47:55.731Z,4.30
2019-05-11T18:50:43.554Z,4.63
2019-05-11T18:53:31.305Z,4.87
2019-05-11T18:56:19.272Z,4.20
2019-05-11T18:59:08.889Z,4.10
2019-05-11T19:01:59.436Z,3.90
2019-05-11T19:04:48.736Z,4.60
2019-05-11T19:07:35.877Z,4.23
2019-05-11T19:10:23.918Z,4.13
2019-05-11T19:13:11.707Z,4.70
2019-05-11T19:16:00.005Z,4.80
2019-05-11T19:18:48.098Z,4.60
2019-05-11T19:21:36.699Z,5.30
2019-05-11T19:24:24.543Z,5.10
2019-05-11T19:27:12.731Z,4.50
2019-05-11T19:30:00.541Z,4.60
2019-05-11T19:32:48.823Z,4.87
2019-05-11T19:35:37.862Z,5.30
2019-05-11T19:38:28.008Z,5.10
2019-05-11T19:41:15.587Z,4.80
2019-05-11T19:44:03.218Z,4.80
2019-05-11T19:46:51.291Z,4.13
2019-05-11T19:49:38.867Z,5.40
2019-05-11T19:52:28.147Z,5.20
2019-05-11T19:55:17.370Z,6.37
2019-05-11T19:58:04.998Z,5.93
2019-05-11T20:00:52.886Z,6.00
2019-05-11T20:03:40.609Z,5.73
2019-05-11T20:06:28.783Z,4.57
2019-05-11T20:09:18.988Z,5.93
2019-05-11T20:12:06.347Z,6.63
2019-05-11T20:14:54.408Z,8.53
2019-05-11T20:17:42.454Z,7.27
2019-05-11T20:20:30.503Z,5.67
2019-05-11T20:23:18.682Z,6.53
2019-05-11T20:26:08.727Z,5.80
2019-05-11T20:28:55.518Z,5.90
2019-05-11T20:31:43.406Z,7.40
2019-05-11T20:34:31.454Z,6.23
2019-05-11T20:37:19.695Z,6.50
2019-05-11T20:40:09.251Z,5.93
2019-05-11T20:42:58.680Z,6.23
2019-05-11T20:45:48.395Z,6.63
2019-05-11T20:48:35.502Z,5.67
2019-05-11T20:51:33.366Z,6.10
2019-05-11T20:54:13.904Z,6.23
2019-05-11T20:57:02.576Z,5.70
2019-05-11T20:59:52.579Z,6.00
2019-05-11T21:02:40.711Z,6.63
2019-05-11T21:05:28.552Z,6.10
2019-05-11T21:08:17.764Z,6.57
2019-05-11T21:11:05.887Z,6.47
2019-05-11T21:13:53.373Z,5.83
2019-05-11T21:16:41.648Z,5.53
2019-05-11T21:19:29.518Z,5.17
2019-05-11T21:22:17.383Z,5.30
2019-05-11T21:25:05.503Z,5.50
2019-05-11T21:27:53.314Z,6.43
2019-05-11T21:30:41.316Z,6.20
2019-05-11T21:33:29.235Z,5.97
2019-05-11T21:36:18.071Z,6.43
2019-05-11T21:39:08.299Z,5.17
2019-05-11T21:41:58.181Z,5.20
2019-05-11T21:44:45.778Z,6.43
2019-05-11T21:47:34.112Z,5.37
2019-05-11T21:50:21.389Z,4.97
2019-05-11T21:53:10.611Z,4.80
2019-05-11T21:55:58.644Z,5.90
2019-05-11T21:58:46.311Z,4.17
2019-05-11T22:01:34.277Z,4.60
2019-05-11T22:04:22.013Z,4.10
2019-05-11T22:07:10.223Z,3.97
2019-05-11T22:09:59.997Z,3.67
2019-05-11T22:12:49.222Z,4.07
2019-05-11T22:15:42.943Z,4.13
2019-05-11T22:18:31.598Z,4.10
2019-05-11T22:21:21.285Z,4.00
2019-05-11T22:24:10.031Z,3.73
2019-05-11T22:27:00.292Z,4.20
2019-05-11T22:29:48.494Z,3.90
2019-05-11T22:32:41.519Z,3.97
2019-05-11T22:35:34.996Z,4.40
2019-05-11T22:38:23.537Z,3.63
2019-05-11T22:41:18.032Z,4.40
2019-05-11T22:44:07.784Z,4.20
2019-05-11T22:46:58.944Z,4.23
2019-05-11T22:49:49.729Z,4.47
2019-05-11T22:52:40.389Z,4.33
2019-05-11T22:55:28.695Z,3.80
2019-05-11T22:58:21.946Z,3.73
2019-05-11T23:01:10.297Z,4.07
2019-05-11T23:03:58.603Z,4.03
2019-05-11T23:06:49.442Z,5.17
2019-05-11T23:09:43.063Z,4.23
2019-05-11T23:12:33.813Z,4.90
2019-05-11T23:15:28.061Z,4.13
2019-05-11T23:18:28.704Z,4.97
2019-05-11T23:21:24.265Z,5.10
2019-05-11T23:24:21.622Z,4.67
2019-05-11T23:27:12.108Z,4.93
2019-05-11T23:30:00.369Z,4.83
2019-05-11T23:32:52.594Z,4.80
2019-05-11T23:35:41.843Z,4.67
2019-05-11T23:38:34.423Z,5.27
2019-05-11T23:41:24.962Z,5.03
2019-05-11T23:44:13.687Z,4.83
2019-05-11T23:47:02.316Z,4.83
2019-05-11T23:49:53.527Z,5.50
2019-05-11T23:52:41.673Z,5.70
2019-05-11T23:55:31.760Z,5.97
2019-05-11T23:58:39.082Z,6.13
